createdAt,value
2023-03-22T00:00:06.587Z,100723.88
2023-03-22T00:02:33.699Z,100727.97
2023-03-22T00:05:01.241Z,100719.97
2023-03-22T00:07:28.484Z,100724.88
2023-03-22T00:09:55.943Z,100714.47
2023-03-22T00:12:23.242Z,100718.00
2023-03-22T00:14:50.535Z,100716.25
2023-03-22T00:17:18.498Z,100709.25
2023-03-22T00:19:46.567Z,100716.41
2023-03-22T00:22:14.749Z,100707.97
2023-03-22T00:24:42.004Z,100702.31
2023-03-22T00:27:09.362Z,100700.81
2023-03-22T00:29:36.696Z,100695.78
2023-03-22T00:32:04.387Z,100690.44
2023-03-22T00:34:33.001Z,100697.72
2023-03-22T00:37:00.572Z,100677.75
2023-03-22T00:39:27.860Z,100680.19
2023-03-22T00:41:55.214Z,100680.66
2023-03-22T00:44:22.463Z,100674.97
2023-03-22T00:46:49.771Z,100669.47
2023-03-22T00:49:17.127Z,100676.59
2023-03-22T00:51:44.586Z,100675.16
2023-03-22T00:54:11.997Z,100666.84
2023-03-22T00:56:39.591Z,100666.03
2023-03-22T00:59:14.711Z,100662.41
2023-03-22T01:01:43.730Z,100656.28
2023-03-22T01:04:15.466Z,100652.09
2023-03-22T01:06:42.908Z,100648.84
2023-03-22T01:09:14.811Z,100653.69
2023-03-22T01:11:43.298Z,100651.75
2023-03-22T01:14:13.809Z,100655.19
2023-03-22T01:16:41.399Z,100646.75
2023-03-22T01:19:09.342Z,100646.41
2023-03-22T01:21:37.067Z,100635.88
2023-03-22T01:24:04.576Z,100630.19
2023-03-22T01:26:32.002Z,100631.63
2023-03-22T01:28:59.338Z,100616.53
2023-03-22T01:31:27.398Z,100613.94
2023-03-22T01:33:54.795Z,100610.69
2023-03-22T01:36:23.380Z,100607.94
2023-03-22T01:38:50.819Z,100597.72
2023-03-22T01:41:18.681Z,100597.84
2023-03-22T01:44:11.087Z,100600.47
2023-03-22T01:46:39.803Z,100590.06
2023-03-22T01:49:09.954Z,100589.75
2023-03-22T01:51:37.591Z,100585.72
2023-03-22T01:54:18.300Z,100584.03
2023-03-22T01:56:45.991Z,100583.88
2023-03-22T01:59:20.971Z,100573.03
2023-03-22T02:02:07.648Z,100576.28
2023-03-22T02:04:39.080Z,100569.28
2023-03-22T02:07:15.591Z,100557.16
2023-03-22T02:09:46.529Z,100540.91
2023-03-22T02:12:21.103Z,100535.38
2023-03-22T02:14:58.802Z,100545.94
2023-03-22T02:18:19.274Z,100537.66
2023-03-22T02:21:19.160Z,100539.59
2023-03-22T02:23:50.736Z,100526.47
2023-03-22T02:26:41.622Z,100532.31
2023-03-22T02:29:26.600Z,100531.34
2023-03-22T02:32:12.646Z,100529.25
2023-03-22T02:34:54.082Z,100518.97
2023-03-22T02:38:12.770Z,100523.34
2023-03-22T02:41:01.658Z,100528.06
2023-03-22T02:43:38.598Z,100519.13
2023-03-22T02:46:14.737Z,100532.63
2023-03-22T02:49:07.908Z,100534.56
2023-03-22T02:51:44.133Z,100534.91
2023-03-22T02:54:18.525Z,100540.44
2023-03-22T02:56:53.981Z,100540.56
2023-03-22T02:59:22.956Z,100533.75
2023-03-22T03:01:56.388Z,100547.38
2023-03-22T03:04:33.522Z,100550.25
2023-03-22T03:07:09.439Z,100546.09
2023-03-22T03:09:38.385Z,100555.34
2023-03-22T03:12:18.580Z,100551.31
2023-03-22T03:14:45.856Z,100551.13
2023-03-22T03:18:06.296Z,100548.53
2023-03-22T03:20:46.597Z,100538.63
2023-03-22T03:23:40.523Z,100537.31
2023-03-22T03:26:23.867Z,100524.50
2023-03-22T03:28:58.738Z,100537.97
2023-03-22T03:31:47.374Z,100537.00
2023-03-22T03:34:19.588Z,100532.94
2023-03-22T03:36:58.566Z,100540.22
2023-03-22T03:39:28.966Z,100532.25
2023-03-22T03:41:56.920Z,100533.22
2023-03-22T03:44:24.665Z,100530.34
2023-03-22T03:46:52.972Z,100536.50
2023-03-22T03:49:22.302Z,100535.50
2023-03-22T03:51:52.557Z,100537.16
2023-03-22T03:54:19.925Z,100528.38
2023-03-22T03:56:47.865Z,100535.69
2023-03-22T03:59:16.552Z,100536.84
2023-03-22T04:01:50.317Z,100531.63
2023-03-22T04:04:27.125Z,100534.56
2023-03-22T04:07:02.829Z,100538.44
2023-03-22T04:09:33.926Z,100543.41
2023-03-22T04:12:14.746Z,100535.03
2023-03-22T04:14:45.807Z,100537.59
2023-03-22T04:17:21.902Z,100533.00
2023-03-22T04:19:49.481Z,100521.59
2023-03-22T04:22:18.402Z,100524.34
2023-03-22T04:24:50.077Z,100522.50
2023-03-22T04:27:21.241Z,100516.78
2023-03-22T04:29:58.055Z,100509.13
2023-03-22T04:32:46.173Z,100521.53
2023-03-22T04:35:14.300Z,100511.44
2023-03-22T04:37:44.436Z,100513.41
2023-03-22T04:40:20.961Z,100518.06
2023-03-22T04:43:09.916Z,100510.53
2023-03-22T04:46:01.929Z,100507.41
2023-03-22T04:48:37.939Z,100507.88
2023-03-22T04:51:06.804Z,100511.25
2023-03-22T04:53:39.900Z,100510.50
2023-03-22T04:56:11.304Z,100510.16
2023-03-22T04:58:42.538Z,100506.47
2023-03-22T05:01:11.958Z,100501.28
2023-03-22T05:03:43.044Z,100502.91
2023-03-22T05:06:10.509Z,100496.28
2023-03-22T05:08:56.593Z,100502.28
2023-03-22T05:11:27.651Z,100490.88
2023-03-22T05:14:13.646Z,100498.88
2023-03-22T05:16:42.124Z,100503.25
2023-03-22T05:19:14.140Z,100490.59
2023-03-22T05:21:45.178Z,100495.94
2023-03-22T05:24:12.541Z,100497.41
2023-03-22T05:26:42.464Z,100495.28
2023-03-22T05:29:11.434Z,100497.88
2023-03-22T05:31:51.523Z,100491.88
2023-03-22T05:34:20.348Z,100489.44
2023-03-22T05:36:47.927Z,100477.59
2023-03-22T05:39:22.882Z,100469.75
2023-03-22T05:41:51.134Z,100480.97
2023-03-22T05:44:18.535Z,100491.53
2023-03-22T05:46:56.072Z,100493.97
2023-03-22T05:49:56.481Z,100495.09
2023-03-22T05:52:26.597Z,100499.00
2023-03-22T05:55:14.107Z,100501.94
2023-03-22T05:57:41.638Z,100494.09
2023-03-22T06:00:16.399Z,100494.59
2023-03-22T06:03:05.430Z,100483.84
2023-03-22T06:05:38.973Z,100478.13
2023-03-22T06:08:07.991Z,100483.38
2023-03-22T06:10:35.417Z,100484.22
2023-03-22T06:13:02.906Z,100483.88
2023-03-22T06:15:33.147Z,100469.28
2023-03-22T06:18:06.700Z,100475.59
2023-03-22T06:20:39.755Z,100478.19
2023-03-22T06:23:16.274Z,100484.94
2023-03-22T06:25:46.083Z,100483.16
2023-03-22T06:28:13.801Z,100485.66
2023-03-22T06:30:50.069Z,100495.56
2023-03-22T06:33:20.041Z,100502.03
2023-03-22T06:35:53.009Z,100502.16
2023-03-22T06:38:29.453Z,100512.75
2023-03-22T06:40:56.818Z,100514.88
2023-03-22T06:43:24.296Z,100524.00
2023-03-22T06:46:01.778Z,100521.25
2023-03-22T06:48:36.203Z,100530.50
2023-03-22T06:51:09.860Z,100531.94
2023-03-22T06:53:38.249Z,100528.31
2023-03-22T06:56:06.185Z,100539.22
2023-03-22T06:58:44.378Z,100546.72
2023-03-22T07:01:11.789Z,100540.69
2023-03-22T07:03:39.224Z,100541.69
2023-03-22T07:06:12.644Z,100549.94
2023-03-22T07:08:43.278Z,100546.34
2023-03-22T07:11:13.116Z,100543.09
2023-03-22T07:13:41.302Z,100550.22
2023-03-22T07:16:13.029Z,100551.16
2023-03-22T07:18:48.482Z,100548.94
2023-03-22T07:21:16.258Z,100552.53
2023-03-22T07:23:48.063Z,100545.50
2023-03-22T07:26:17.931Z,100549.09
2023-03-22T07:28:48.123Z,100541.28
2023-03-22T07:31:16.142Z,100541.91
2023-03-22T07:33:52.411Z,100546.44
2023-03-22T07:36:23.973Z,100547.00
2023-03-22T07:38:52.003Z,100540.09
2023-03-22T07:41:27.125Z,100554.75
2023-03-22T07:44:17.327Z,100546.31
2023-03-22T07:46:52.674Z,100561.03
2023-03-22T07:49:23.599Z,100561.34
2023-03-22T07:52:13.485Z,100567.38
2023-03-22T07:54:41.255Z,100561.66
2023-03-22T07:57:09.796Z,100563.84
2023-03-22T07:59:52.667Z,100557.28
2023-03-22T08:02:20.075Z,100565.09
2023-03-22T08:04:55.109Z,100557.31
2023-03-22T08:07:32.446Z,100560.69
2023-03-22T08:09:59.897Z,100563.28
2023-03-22T08:12:28.067Z,100563.00
2023-03-22T08:15:04.719Z,100571.06
2023-03-22T08:17:33.936Z,100566.00
2023-03-22T08:20:01.481Z,100577.94
2023-03-22T08:22:44.334Z,100572.53
2023-03-22T08:25:26.765Z,100575.84
2023-03-22T08:28:00.122Z,100576.41
2023-03-22T08:30:28.272Z,100571.59
2023-03-22T08:32:56.080Z,100568.22
2023-03-22T08:35:23.708Z,100567.25
2023-03-22T08:37:57.731Z,100560.91
2023-03-22T08:40:31.891Z,100546.97
2023-03-22T08:43:01.906Z,100565.84
2023-03-22T08:45:30.642Z,100567.13
2023-03-22T08:48:08.895Z,100570.88
2023-03-22T08:50:54.328Z,100563.41
2023-03-22T08:53:29.719Z,100551.31
2023-03-22T08:56:16.552Z,100547.19
2023-03-22T08:58:58.165Z,100549.69
2023-03-22T09:01:56.843Z,100549.50
2023-03-22T09:04:24.241Z,100546.34
2023-03-22T09:06:51.714Z,100545.06
2023-03-22T09:09:19.117Z,100550.84
2023-03-22T09:11:49.929Z,100551.41
2023-03-22T09:14:17.287Z,100537.72
2023-03-22T09:16:47.772Z,100529.56
2023-03-22T09:19:15.438Z,100545.06
2023-03-22T09:21:42.843Z,100535.59
2023-03-22T09:24:17.216Z,100539.03
2023-03-22T09:26:50.481Z,100535.47
2023-03-22T09:29:19.591Z,100540.47
2023-03-22T09:31:48.980Z,100530.19
2023-03-22T09:34:32.021Z,100536.00
2023-03-22T09:37:02.457Z,100535.22
2023-03-22T09:39:38.924Z,100540.75
2023-03-22T09:42:38.728Z,100529.50
2023-03-22T09:45:16.165Z,100526.03
2023-03-22T09:47:47.153Z,100527.09
2023-03-22T09:50:20.149Z,100527.28
2023-03-22T09:52:48.370Z,100534.50
2023-03-22T09:55:22.644Z,100530.78
2023-03-22T09:58:06.419Z,100512.91
2023-03-22T10:00:44.202Z,100511.81
2023-03-22T10:03:20.998Z,100504.75
2023-03-22T10:05:53.391Z,100498.47
2023-03-22T10:08:50.766Z,100495.72
2023-03-22T10:11:26.128Z,100478.75
2023-03-22T10:14:04.120Z,100487.56
2023-03-22T10:16:33.866Z,100492.78
2023-03-22T10:19:27.023Z,100504.75
2023-03-22T10:21:56.579Z,100507.94
2023-03-22T10:24:27.724Z,100511.53
2023-03-22T10:26:55.376Z,100499.38
2023-03-22T10:29:33.093Z,100504.69
2023-03-22T10:32:13.629Z,100502.53
2023-03-22T10:34:41.447Z,100479.34
2023-03-22T10:37:13.065Z,100465.59
2023-03-22T10:39:44.592Z,100476.44
2023-03-22T10:42:16.004Z,100481.94
2023-03-22T10:44:48.350Z,100479.19
2023-03-22T10:47:19.281Z,100477.72
2023-03-22T10:49:51.528Z,100475.56
2023-03-22T10:52:31.268Z,100460.94
2023-03-22T10:55:02.998Z,100445.34
2023-03-22T10:57:31.771Z,100456.63
2023-03-22T10:59:59.271Z,100461.25
2023-03-22T11:02:32.180Z,100449.53
2023-03-22T11:05:01.930Z,100442.00
2023-03-22T11:07:36.714Z,100453.00
2023-03-22T11:10:10.065Z,100456.09
2023-03-22T11:13:09.713Z,100452.81
2023-03-22T11:15:40.232Z,100447.50
2023-03-22T11:18:12.621Z,100448.19
2023-03-22T11:20:42.208Z,100447.34
2023-03-22T11:23:42.111Z,100458.06
2023-03-22T11:26:12.450Z,100457.06
2023-03-22T11:28:47.082Z,100445.41
2023-03-22T11:31:16.996Z,100451.34
2023-03-22T11:34:01.278Z,100447.00
2023-03-22T11:36:29.629Z,100445.84
2023-03-22T11:39:02.114Z,100433.09
2023-03-22T11:41:31.345Z,100447.06
2023-03-22T11:44:02.124Z,100448.50
2023-03-22T11:46:30.069Z,100436.69
2023-03-22T11:49:01.323Z,100426.34
2023-03-22T11:51:33.351Z,100434.22
2023-03-22T11:54:07.952Z,100433.06
2023-03-22T11:56:40.564Z,100440.69
2023-03-22T11:59:16.737Z,100432.03
2023-03-22T12:01:51.666Z,100441.19
2023-03-22T12:04:23.797Z,100444.19
2023-03-22T12:06:53.921Z,100434.31
2023-03-22T12:09:32.767Z,100439.69
2023-03-22T12:12:02.076Z,100430.53
2023-03-22T12:14:52.899Z,100432.09
2023-03-22T12:17:36.833Z,100436.09
2023-03-22T12:20:16.652Z,100425.13
2023-03-22T12:22:51.374Z,100420.44
2023-03-22T12:25:25.906Z,100419.50
2023-03-22T12:28:14.963Z,100416.88
2023-03-22T12:30:49.339Z,100412.13
2023-03-22T12:33:20.783Z,100393.50
2023-03-22T12:35:51.703Z,100384.53
2023-03-22T12:38:37.924Z,100393.97
2023-03-22T12:41:08.550Z,100393.03
2023-03-22T12:43:43.081Z,100381.34
2023-03-22T12:46:17.840Z,100389.03
2023-03-22T12:49:16.571Z,100386.34
2023-03-22T12:51:44.108Z,100388.56
2023-03-22T12:54:14.442Z,100384.28
2023-03-22T12:56:44.096Z,100381.50
2023-03-22T12:59:19.039Z,100373.50
2023-03-22T13:01:52.266Z,100379.06
2023-03-22T13:04:32.085Z,100380.88
2023-03-22T13:07:08.815Z,100387.22
2023-03-22T13:09:45.438Z,100375.41
2023-03-22T13:12:16.466Z,100379.44
2023-03-22T13:14:53.140Z,100368.75
2023-03-22T13:17:23.338Z,100368.75
2023-03-22T13:20:00.769Z,100368.41
2023-03-22T13:22:43.251Z,100371.53
2023-03-22T13:25:12.846Z,100364.84
2023-03-22T13:27:46.224Z,100352.25
2023-03-22T13:30:24.877Z,100349.19
2023-03-22T13:32:56.624Z,100347.53
2023-03-22T13:35:28.472Z,100344.31
2023-03-22T13:38:07.721Z,100352.53
2023-03-22T13:40:43.390Z,100347.25
2023-03-22T13:43:13.752Z,100340.00
2023-03-22T13:46:11.811Z,100348.34
2023-03-22T13:48:48.826Z,100335.13
2023-03-22T13:51:16.738Z,100330.31
2023-03-22T13:53:58.007Z,100329.69
2023-03-22T13:56:36.976Z,100327.34
2023-03-22T13:59:05.051Z,100319.66
2023-03-22T14:01:36.246Z,100320.63
2023-03-22T14:04:10.788Z,100320.03
2023-03-22T14:06:52.317Z,100322.78
2023-03-22T14:09:28.824Z,100310.00
2023-03-22T14:12:04.150Z,100304.72
2023-03-22T14:14:40.568Z,100313.16
2023-03-22T14:17:11.871Z,100300.44
2023-03-22T14:19:41.176Z,100299.81
